Time;durP1;ratioP1;P1;durP2;ratioP2;P2;SDS_P1;SDS_P2;PMS_P1;PMS_P2;Temp;Humidity;BMP_temperature;BMP_pressure;BME280_temperature;BME280_humidity;BME280_pressure;Samples;Min_cycle;Max_cycle;Signal;HPM_P1;HPM_P2
2022/04/19 00:01:17;;;;;;;1.70;1.57;;;22.80;51.30;;;;;;5033710;28;20176;-82
2022/04/19 00:03:43;;;;;;;1.53;1.43;;;22.80;51.30;;;;;;5040661;28;20474;-82
2022/04/19 00:06:09;;;;;;;1.60;1.40;;;22.80;51.30;;;;;;5019852;28;20420;-82
2022/04/19 00:08:39;;;;;;;2.70;1.30;;;22.80;51.30;;;;;;5003636;28;20187;-83
2022/04/19 00:11:06;;;;;;;1.50;1.40;;;22.80;51.30;;;;;;5019787;28;20416;-82
2022/04/19 00:13:32;;;;;;;1.60;1.40;;;22.80;51.30;;;;;;5039406;28;20418;-83
2022/04/19 00:15:59;;;;;;;1.63;1.40;;;22.80;51.30;;;;;;5006293;28;20429;-82
2022/04/19 00:18:33;;;;;;;2.37;1.70;;;22.80;51.30;;;;;;5023725;28;20437;-82
2022/04/19 00:21:02;;;;;;;1.60;1.40;;;22.80;51.30;;;;;;5041260;28;20415;-83
2022/04/19 00:23:28;;;;;;;1.70;1.60;;;22.80;51.30;;;;;;5024642;28;20442;-82
2022/04/19 00:25:56;;;;;;;1.63;1.20;;;22.80;51.30;;;;;;5024080;28;20411;-82
2022/04/19 00:28:24;;;;;;;1.40;1.30;;;22.80;51.30;;;;;;5008477;28;20454;-82
2022/04/19 00:30:50;;;;;;;1.53;1.43;;;22.80;51.30;;;;;;5024483;28;20410;-82
2022/04/19 00:33:16;;;;;;;1.50;1.40;;;22.80;51.30;;;;;;5024461;28;20414;-82
2022/04/19 00:35:42;;;;;;;1.50;1.23;;;22.80;51.30;;;;;;5038033;28;20407;-82
2022/04/19 00:38:17;;;;;;;1.30;1.20;;;22.80;51.30;;;;;;5038783;28;20411;-82
2022/04/19 00:40:53;;;;;;;1.30;1.07;;;22.80;51.30;;;;;;5038235;28;20396;-82
2022/04/19 00:43:19;;;;;;;1.40;1.30;;;22.80;51.30;;;;;;5020969;28;20422;-82
2022/04/19 00:45:48;;;;;;;1.60;1.50;;;22.80;51.30;;;;;;5037939;28;20411;-82
2022/04/19 00:48:14;;;;;;;1.50;1.40;;;22.80;51.30;;;;;;5005288;28;20160;-82
2022/04/19 00:50:41;;;;;;;1.77;1.67;;;22.80;51.30;;;;;;5020690;28;20429;-82
2022/04/19 00:53:11;;;;;;;1.30;1.20;;;22.80;51.30;;;;;;5020773;28;20184;-82
2022/04/19 00:55:42;;;;;;;1.40;1.30;;;22.80;51.30;;;;;;5038100;28;20428;-82
2022/04/19 00:58:08;;;;;;;1.33;1.23;;;22.80;51.40;;;;;;5020449;28;20411;-82
2022/04/19 01:00:34;;;;;;;1.33;1.20;;;22.80;51.30;;;;;;5037819;28;20403;-82
2022/04/19 01:03:09;;;;;;;1.87;1.10;;;22.80;51.30;;;;;;5021110;28;20415;-83
2022/04/19 01:05:37;;;;;;;1.30;1.20;;;22.80;51.30;;;;;;4998905;28;20501;-82
2022/04/19 01:08:03;;;;;;;1.50;1.20;;;22.80;51.40;;;;;;5019720;28;20423;-82
2022/04/19 01:10:32;;;;;;;1.80;1.20;;;22.80;51.40;;;;;;5003996;28;20450;-82
2022/04/19 01:13:18;;;;;;;1.73;1.27;;;22.80;51.40;;;;;;5020090;28;20422;-82
2022/04/19 01:15:50;;;;;;;1.37;1.27;;;22.80;51.40;;;;;;5037514;28;20419;-82
2022/04/19 01:18:23;;;;;;;1.93;1.50;;;22.80;51.40;;;;;;5019916;28;20422;-83
2022/04/19 01:20:52;;;;;;;1.87;1.40;;;22.80;51.40;;;;;;5004558;28;20415;-82
2022/04/19 01:23:20;;;;;;;1.30;1.13;;;22.80;51.40;;;;;;5020656;28;20443;-82
2022/04/19 01:25:46;;;;;;;2.50;1.97;;;22.90;51.50;;;;;;5019992;28;20442;-83
2022/04/19 01:28:15;;;;;;;1.90;1.30;;;22.90;51.40;;;;;;5038022;28;20415;-83
2022/04/19 01:30:45;;;;;;;1.20;1.10;;;22.80;51.40;;;;;;5020215;28;20417;-82
2022/04/19 01:33:11;;;;;;;1.77;1.50;;;22.90;51.40;;;;;;5020397;28;20422;-82
2022/04/19 01:35:41;;;;;;;1.67;1.33;;;22.90;51.40;;;;;;5019240;28;20475;-82
2022/04/19 01:38:13;;;;;;;1.50;1.40;;;22.90;51.40;;;;;;5020038;28;20418;-82
2022/04/19 01:40:44;;;;;;;1.57;1.27;;;22.90;51.40;;;;;;5036984;28;20408;-82
2022/04/19 01:43:13;;;;;;;1.53;1.43;;;22.90;51.40;;;;;;5020051;28;20420;-83
2022/04/19 01:45:41;;;;;;;2.00;1.20;;;22.90;51.50;;;;;;5036550;28;20451;-83
2022/04/19 01:48:10;;;;;;;1.83;1.67;;;22.90;51.50;;;;;;5036661;28;20400;-82
2022/04/19 01:50:40;;;;;;;1.40;1.30;;;22.80;51.40;;;;;;5020049;28;20419;-82
2022/04/19 01:53:12;;;;;;;2.13;1.43;;;22.90;51.40;;;;;;5036317;28;20443;-82
2022/04/19 01:55:40;;;;;;;1.77;1.20;;;22.90;51.50;;;;;;5019281;28;20429;-82
2022/04/19 01:58:07;;;;;;;1.50;1.40;;;22.90;51.50;;;;;;5019702;28;20396;-82
2022/04/19 02:00:33;;;;;;;1.50;1.30;;;22.90;51.50;;;;;;5036604;28;20419;-83
2022/04/19 02:03:03;;;;;;;5.07;1.30;;;22.90;51.50;;;;;;5019333;28;20411;-82
2022/04/19 02:05:29;;;;;;;1.57;1.47;;;22.90;51.50;;;;;;5019796;28;20439;-82
2022/04/19 02:07:56;;;;;;;1.67;1.17;;;22.90;51.50;;;;;;5019402;28;20430;-82
2022/04/19 02:10:24;;;;;;;1.30;1.13;;;22.90;51.50;;;;;;5019731;28;20431;-82
2022/04/19 02:12:52;;;;;;;1.67;1.20;;;22.90;51.50;;;;;;5019165;28;20419;-82
2022/04/19 02:15:18;;;;;;;1.67;1.20;;;22.90;51.50;;;;;;5036861;28;20435;-82
2022/04/19 02:17:49;;;;;;;1.23;1.10;;;22.90;51.50;;;;;;5018871;28;20423;-82
2022/04/19 02:20:18;;;;;;;1.67;1.47;;;22.90;51.50;;;;;;5035960;28;20176;-82
2022/04/19 02:22:46;;;;;;;1.30;1.10;;;22.90;51.50;;;;;;5036122;28;20426;-82
2022/04/19 02:25:14;;;;;;;2.03;1.20;;;22.90;51.50;;;;;;5036461;28;20465;-81
2022/04/19 02:27:47;;;;;;;1.37;1.27;;;22.90;51.50;;;;;;5017488;28;20420;-81
2022/04/19 02:30:15;;;;;;;1.30;1.10;;;22.90;51.50;;;;;;5020033;28;20408;-82
2022/04/19 02:32:43;;;;;;;1.33;1.10;;;22.90;51.50;;;;;;5015539;28;20424;-83
2022/04/19 02:35:11;;;;;;;1.83;1.30;;;22.90;51.50;;;;;;5016074;28;20423;-82
2022/04/19 02:37:37;;;;;;;1.80;1.30;;;22.90;51.50;;;;;;5015063;28;20472;-82
2022/04/19 02:40:08;;;;;;;1.50;1.30;;;22.90;51.50;;;;;;5015204;28;20867;-82
2022/04/19 02:42:36;;;;;;;1.60;1.37;;;22.90;51.50;;;;;;5014825;28;20423;-82
2022/04/19 02:45:04;;;;;;;1.93;1.40;;;22.90;51.50;;;;;;5014484;28;20451;-82
2022/04/19 02:47:29;;;;;;;1.20;1.10;;;22.90;51.50;;;;;;5014176;28;20435;-82
2022/04/19 02:49:57;;;;;;;1.57;1.30;;;22.90;51.50;;;;;;5015120;28;20476;-83
2022/04/19 02:52:23;;;;;;;1.40;1.30;;;22.90;51.50;;;;;;5013999;28;20419;-82
2022/04/19 02:54:49;;;;;;;1.43;1.23;;;22.90;52.10;;;;;;5013545;28;20428;-82
2022/04/19 02:57:19;;;;;;;1.20;1.10;;;22.90;51.50;;;;;;5014196;28;20208;-82
2022/04/19 02:59:46;;;;;;;1.50;1.20;;;22.90;51.50;;;;;;5013116;28;20512;-83
2022/04/19 03:02:16;;;;;;;1.40;1.30;;;22.90;51.50;;;;;;5001681;28;20419;-82
2022/04/19 03:04:45;;;;;;;1.40;1.30;;;22.90;51.50;;;;;;5035352;28;20435;-82
2022/04/19 03:07:15;;;;;;;1.77;1.40;;;22.90;51.50;;;;;;5035621;28;20404;-83
2022/04/19 03:09:43;;;;;;;1.40;1.30;;;22.90;51.50;;;;;;5019246;28;20407;-82
2022/04/19 03:12:11;;;;;;;1.40;1.30;;;22.90;51.50;;;;;;5018076;28;20431;-83
2022/04/19 03:14:38;;;;;;;1.40;1.20;;;22.90;51.50;;;;;;5002323;28;20427;-82
2022/04/19 03:17:06;;;;;;;1.47;1.33;;;22.90;51.50;;;;;;5001585;28;20434;-82
2022/04/19 03:19:36;;;;;;;1.50;1.20;;;22.90;51.50;;;;;;5035750;28;20407;-82
2022/04/19 03:22:03;;;;;;;2.03;1.10;;;22.90;51.50;;;;;;5014242;28;20420;-82
2022/04/19 03:30:19;;;;;;;1.30;1.10;;;22.90;51.50;;;;;;5014480;28;20412;-82
2022/04/19 03:32:52;;;;;;;1.20;1.10;;;22.90;51.60;;;;;;4982052;28;20480;-82
2022/04/19 03:35:19;;;;;;;1.97;1.13;;;22.90;51.60;;;;;;4999179;28;20395;-82
2022/04/19 03:37:46;;;;;;;1.70;1.20;;;22.90;51.60;;;;;;4982085;28;20428;-82
2022/04/19 03:40:12;;;;;;;1.70;1.40;;;22.90;51.60;;;;;;4998613;28;20436;-82
2022/04/19 03:42:42;;;;;;;1.30;1.10;;;22.90;51.60;;;;;;4997579;28;20416;-82
2022/04/19 03:45:15;;;;;;;1.20;1.10;;;22.90;51.60;;;;;;4982558;28;20556;-82
2022/04/19 03:47:41;;;;;;;1.30;1.20;;;22.90;51.60;;;;;;4982833;28;20464;-82
2022/04/19 03:50:08;;;;;;;1.20;1.10;;;22.90;51.60;;;;;;4998361;28;20424;-82
2022/04/19 03:52:41;;;;;;;1.83;1.70;;;22.90;51.60;;;;;;5014483;28;20392;-82
2022/04/19 03:55:11;;;;;;;2.23;1.20;;;22.90;51.60;;;;;;5013379;28;20443;-82
2022/04/19 03:57:38;;;;;;;1.50;1.37;;;22.90;51.60;;;;;;5014535;28;20431;-82
2022/04/19 04:00:11;;;;;;;1.40;1.03;;;22.90;51.60;;;;;;4997664;28;20444;-82
2022/04/19 04:02:39;;;;;;;1.50;1.13;;;22.90;51.50;;;;;;5013622;28;20411;-82
2022/04/19 04:05:08;;;;;;;1.43;1.10;;;22.90;51.50;;;;;;5032611;28;20469;-82
2022/04/19 04:07:40;;;;;;;1.47;1.10;;;22.90;51.60;;;;;;5018262;28;20434;-82
2022/04/19 04:10:07;;;;;;;1.47;1.30;;;22.90;51.60;;;;;;5020219;28;20414;-82
2022/04/19 04:12:35;;;;;;;1.20;1.10;;;22.90;51.60;;;;;;5038789;28;20914;-82
2022/04/19 04:15:03;;;;;;;1.40;1.30;;;22.90;51.60;;;;;;5021814;28;20423;-82
2022/04/19 04:17:29;;;;;;;1.40;1.13;;;22.90;51.50;;;;;;5005103;28;20415;-82
2022/04/19 04:20:08;;;;;;;1.37;1.27;;;22.90;51.60;;;;;;5038638;28;20454;-81
2022/04/19 04:22:37;;;;;;;1.60;1.30;;;22.90;51.60;;;;;;5020082;28;20411;-81
2022/04/19 04:25:04;;;;;;;1.47;1.37;;;22.90;51.60;;;;;;4989069;28;20827;-81
2022/04/19 04:27:30;;;;;;;1.27;1.10;;;22.90;51.60;;;;;;5005580;28;20518;-81
2022/04/19 04:29:57;;;;;;;1.70;1.40;;;22.90;51.60;;;;;;5021137;28;20400;-81
2022/04/19 04:32:25;;;;;;;1.20;1.10;;;22.90;51.60;;;;;;5021057;28;20925;-81
2022/04/19 04:34:51;;;;;;;1.40;1.03;;;22.90;51.60;;;;;;5019942;28;20453;-82
2022/04/19 04:37:18;;;;;;;1.40;1.20;;;22.90;51.60;;;;;;5020582;28;20507;-81
2022/04/19 04:39:51;;;;;;;1.20;1.10;;;22.90;51.60;;;;;;5019748;28;20427;-81
2022/04/19 04:42:18;;;;;;;1.53;1.20;;;22.90;51.60;;;;;;5020551;28;20192;-82
2022/04/19 04:44:45;;;;;;;1.53;1.10;;;22.90;51.70;;;;;;5004617;28;20531;-82
2022/04/19 04:50:02;;;;;;;1.73;1.30;;;22.90;51.60;;;;;;5022570;28;20402;-81
2022/04/19 04:52:32;;;;;;;1.37;1.10;;;22.90;51.60;;;;;;5005922;28;20409;-81
2022/04/19 04:54:58;;;;;;;1.23;1.07;;;22.90;51.70;;;;;;5020943;28;20431;-81
2022/04/19 04:57:32;;;;;;;1.40;1.17;;;22.90;51.70;;;;;;5038036;28;20423;-81
2022/04/19 04:59:58;;;;;;;2.27;1.60;;;22.90;51.70;;;;;;5037740;28;20519;-81
2022/04/19 05:02:25;;;;;;;1.23;1.10;;;22.90;51.70;;;;;;5037955;28;20415;-81
2022/04/19 05:04:51;;;;;;;1.30;1.17;;;22.90;51.70;;;;;;5003997;28;20461;-81
2022/04/19 05:07:18;;;;;;;1.60;1.13;;;22.90;51.70;;;;;;5019789;28;20443;-81
2022/04/19 05:09:45;;;;;;;1.40;1.23;;;23.00;51.80;;;;;;5003485;28;20446;-81
2022/04/19 05:12:11;;;;;;;1.40;1.00;;;23.00;51.70;;;;;;5020411;28;20416;-82
2022/04/19 05:14:40;;;;;;;1.20;1.00;;;23.00;51.70;;;;;;5037230;28;20407;-82
2022/04/19 05:17:07;;;;;;;1.40;1.30;;;23.00;51.70;;;;;;5020997;28;20439;-82
2022/04/19 05:19:40;;;;;;;1.27;0.90;;;23.00;51.70;;;;;;5037242;28;20430;-82
2022/04/19 05:22:07;;;;;;;1.20;1.10;;;23.00;51.70;;;;;;5020797;28;20430;-82
2022/04/19 05:24:35;;;;;;;1.40;1.10;;;23.00;51.70;;;;;;5020031;28;20451;-83
2022/04/19 05:27:05;;;;;;;2.17;1.20;;;23.00;51.70;;;;;;5020702;28;20411;-83
2022/04/19 05:29:31;;;;;;;1.30;1.10;;;23.00;51.70;;;;;;5036504;28;20506;-83
2022/04/19 05:31:57;;;;;;;1.20;1.10;;;23.00;51.70;;;;;;5034687;28;20403;-83
2022/04/19 05:34:25;;;;;;;1.40;1.20;;;23.00;51.70;;;;;;5018880;28;20645;-82
2022/04/19 05:37:07;;;;;;;1.20;1.10;;;23.00;51.70;;;;;;5035152;28;20419;-83
2022/04/19 05:39:34;;;;;;;1.40;1.00;;;23.00;51.70;;;;;;5019608;28;20442;-82
2022/04/19 05:42:15;;;;;;;3.00;1.10;;;23.00;51.70;;;;;;5002109;28;20435;-82
2022/04/19 05:44:48;;;;;;;1.40;1.20;;;23.00;51.70;;;;;;5035668;28;20485;-82
2022/04/19 05:47:23;;;;;;;1.10;1.00;;;23.00;51.70;;;;;;5037591;28;20388;-82
2022/04/19 05:49:49;;;;;;;1.40;1.20;;;23.00;51.70;;;;;;5020846;28;20430;-83
2022/04/19 05:52:16;;;;;;;1.20;0.97;;;23.00;51.70;;;;;;5037532;28;20188;-82
2022/04/19 05:54:50;;;;;;;3.63;0.90;;;23.00;51.70;;;;;;5036699;28;20914;-82
2022/04/19 05:57:17;;;;;;;1.10;1.00;;;23.10;51.80;;;;;;5016133;28;20256;-82
2022/04/19 05:59:43;;;;;;;1.20;1.00;;;23.10;51.80;;;;;;5036719;28;20427;-82
2022/04/19 06:04:57;;;;;;;1.13;1.00;;;23.10;51.80;;;;;;5037174;28;20207;-82
2022/04/19 06:07:25;;;;;;;1.40;1.00;;;23.10;51.80;;;;;;5036340;28;20390;-82
2022/04/19 06:09:52;;;;;;;1.90;1.20;;;23.10;51.80;;;;;;5003715;28;20438;-82
2022/04/19 06:12:24;;;;;;;1.00;0.87;;;23.10;51.80;;;;;;5002166;28;20419;-82
2022/04/19 06:14:51;;;;;;;1.30;1.00;;;23.00;51.70;;;;;;5018773;28;20402;-82
2022/04/19 06:17:18;;;;;;;1.67;1.30;;;23.10;51.80;;;;;;5036531;28;20439;-82
2022/04/19 06:19:44;;;;;;;1.40;1.00;;;23.10;51.80;;;;;;5019611;28;20422;-82
2022/04/19 06:22:11;;;;;;;1.10;1.00;;;23.10;51.80;;;;;;5036150;28;20426;-82
2022/04/19 06:24:37;;;;;;;1.30;1.20;;;23.10;51.80;;;;;;5036346;28;20473;-82
2022/04/19 06:27:04;;;;;;;1.30;1.00;;;23.10;51.80;;;;;;5035976;28;20403;-82
2022/04/19 06:29:30;;;;;;;1.30;1.10;;;23.10;51.80;;;;;;5036952;28;20176;-82
2022/04/19 06:31:56;;;;;;;1.67;1.10;;;23.10;51.80;;;;;;5019630;28;20423;-82
2022/04/19 06:34:24;;;;;;;1.30;1.10;;;23.10;51.80;;;;;;5018499;28;20420;-82
2022/04/19 06:36:49;;;;;;;1.80;0.90;;;23.10;51.80;;;;;;5036652;28;20411;-82
2022/04/19 06:39:15;;;;;;;1.30;1.00;;;23.10;51.80;;;;;;5019778;28;20485;-82
2022/04/19 06:41:42;;;;;;;1.23;1.10;;;23.10;51.80;;;;;;5036199;28;20176;-82
2022/04/19 06:44:08;;;;;;;1.20;1.03;;;23.10;51.80;;;;;;5018778;28;20200;-82
2022/04/19 06:46:36;;;;;;;1.63;1.13;;;23.10;51.80;;;;;;5036036;28;20418;-82
2022/04/19 06:49:02;;;;;;;1.80;1.40;;;23.10;51.70;;;;;;5036094;28;20419;-82
2022/04/19 06:51:30;;;;;;;4.63;3.10;;;23.10;51.70;;;;;;5019128;28;20415;-81
2022/04/19 06:53:56;;;;;;;2.33;1.70;;;23.10;51.60;;;;;;5019067;28;20407;-82
2022/04/19 06:56:21;;;;;;;2.10;1.70;;;23.10;51.60;;;;;;5019117;28;20426;-82
2022/04/19 06:58:49;;;;;;;1.43;1.30;;;23.10;51.60;;;;;;5036102;28;20199;-82
2022/04/19 07:01:15;;;;;;;2.07;1.50;;;23.10;51.70;;;;;;5018579;28;20670;-82
2022/04/19 07:03:40;;;;;;;2.23;1.50;;;23.10;51.60;;;;;;5018725;28;20435;-82
2022/04/19 07:06:06;;;;;;;1.97;1.53;;;23.10;51.60;;;;;;5018040;28;20204;-82
2022/04/19 07:08:33;;;;;;;1.80;1.30;;;23.10;51.50;;;;;;5035470;28;20184;-82
2022/04/19 07:11:00;;;;;;;1.50;1.30;;;23.10;51.40;;;;;;5018806;28;20157;-82
2022/04/19 07:13:26;;;;;;;1.33;1.23;;;23.10;51.40;;;;;;5036422;28;20403;-82
2022/04/19 07:15:53;;;;;;;6.73;1.93;;;23.10;51.40;;;;;;5035331;28;20403;-82
2022/04/19 07:18:23;;;;;;;1.50;1.37;;;23.10;51.40;;;;;;5017855;28;20423;-82
2022/04/19 07:29:02;;;;;;;1.70;1.50;;;23.10;51.30;;;;;;5035928;28;20430;-81
2022/04/19 07:31:28;;;;;;;1.97;1.50;;;23.10;51.30;;;;;;5019544;28;20387;-81
2022/04/19 07:33:54;;;;;;;1.90;1.37;;;23.10;51.40;;;;;;5034393;28;20414;-82
2022/04/19 07:36:20;;;;;;;1.30;1.20;;;23.10;51.40;;;;;;5034194;28;20411;-82
2022/04/19 07:38:46;;;;;;;2.23;1.50;;;23.10;51.40;;;;;;5014889;28;20161;-82
2022/04/19 07:41:12;;;;;;;1.90;1.33;;;23.10;51.40;;;;;;5026488;28;20206;-82
2022/04/19 07:43:38;;;;;;;3.00;1.50;;;23.10;51.40;;;;;;5025343;28;20454;-82
2022/04/19 07:46:10;;;;;;;1.73;1.30;;;23.10;51.40;;;;;;5021853;28;20396;-82
2022/04/19 07:48:36;;;;;;;1.47;1.17;;;23.10;51.30;;;;;;5039668;28;20235;-82
2022/04/19 07:51:03;;;;;;;1.60;1.50;;;23.10;51.40;;;;;;5039288;28;20556;-82
2022/04/19 07:53:28;;;;;;;1.33;1.23;;;23.10;51.30;;;;;;5039352;28;20408;-82
2022/04/19 07:55:57;;;;;;;1.53;1.43;;;23.10;51.30;;;;;;5021597;28;20466;-82
2022/04/19 07:58:24;;;;;;;1.50;1.40;;;23.10;51.40;;;;;;5021701;28;20239;-83
2022/04/19 08:00:50;;;;;;;1.50;1.40;;;23.10;51.30;;;;;;5036999;28;20495;-87
2022/04/19 08:03:16;;;;;;;1.50;1.40;;;23.10;51.40;;;;;;5037229;28;20431;-84
2022/04/19 08:05:42;;;;;;;3.03;1.83;;;23.10;51.30;;;;;;5038145;28;20474;-83
2022/04/19 08:08:08;;;;;;;2.20;1.53;;;23.10;51.40;;;;;;5038453;28;20426;-83
2022/04/19 08:13:56;;;;;;;1.77;1.67;;;23.10;51.40;;;;;;5035535;28;20165;-82
2022/04/19 08:16:22;;;;;;;2.07;1.40;;;23.10;51.40;;;;;;5036328;28;20423;-83
2022/04/19 08:18:48;;;;;;;1.60;1.40;;;23.10;52.00;;;;;;5035579;28;20181;-83
2022/04/19 08:21:14;;;;;;;2.80;1.53;;;23.10;51.40;;;;;;5035258;28;20240;-83
2022/04/19 08:23:39;;;;;;;2.77;1.73;;;23.10;51.40;;;;;;5019824;28;20180;-83
2022/04/19 08:26:05;;;;;;;1.23;1.13;;;23.10;51.40;;;;;;5035803;28;20173;-82
2022/04/19 08:28:32;;;;;;;1.87;1.77;;;23.10;51.40;;;;;;5018764;28;20200;-82
2022/04/19 08:31:01;;;;;;;1.67;1.30;;;23.10;51.40;;;;;;5021159;28;20180;-82
2022/04/19 08:33:29;;;;;;;2.30;1.47;;;23.10;51.40;;;;;;5037779;28;20418;-82
2022/04/19 08:35:55;;;;;;;1.90;1.30;;;23.10;51.40;;;;;;5021537;28;20427;-84
2022/04/19 08:38:23;;;;;;;1.80;1.47;;;23.10;51.40;;;;;;5021337;28;20408;-82
2022/04/19 08:40:49;;;;;;;5.63;1.43;;;23.10;51.40;;;;;;5004984;28;20443;-82
2022/04/19 08:43:16;;;;;;;1.70;1.40;;;23.10;51.40;;;;;;5037497;28;20407;-83
2022/04/19 08:45:46;;;;;;;1.53;1.27;;;23.10;51.40;;;;;;5037696;28;20473;-82
2022/04/19 08:48:15;;;;;;;1.53;1.30;;;23.10;51.40;;;;;;5038276;28;20483;-82
2022/04/19 08:50:42;;;;;;;1.80;1.50;;;23.10;51.40;;;;;;5020998;28;20447;-82
2022/04/19 08:59:11;;;;;;;1.97;1.40;;;23.20;51.50;;;;;;5038097;28;20468;-83
2022/04/19 09:01:37;;;;;;;1.97;1.33;;;23.10;51.40;;;;;;5020450;28;20410;-83
2022/04/19 09:04:04;;;;;;;2.10;1.20;;;23.10;51.40;;;;;;5037338;28;20483;-83
2022/04/19 09:06:52;;;;;;;3.40;1.57;;;23.10;51.40;;;;;;5037377;28;20173;-83
2022/04/19 09:09:22;;;;;;;2.60;1.67;;;23.20;51.50;;;;;;5020239;28;20404;-83
2022/04/19 09:11:48;;;;;;;1.93;1.33;;;23.20;51.50;;;;;;5020186;28;20399;-83
2022/04/19 09:14:17;;;;;;;3.40;1.70;;;23.20;51.50;;;;;;5020629;28;20416;-82
2022/04/19 09:16:43;;;;;;;3.77;2.37;;;23.20;51.50;;;;;;5037532;28;20408;-83
2022/04/19 09:19:09;;;;;;;5.70;1.93;;;23.20;51.50;;;;;;5016905;28;20859;-82
2022/04/19 09:21:42;;;;;;;3.57;1.80;;;23.20;51.50;;;;;;5017747;28;20408;-82
2022/04/19 09:24:19;;;;;;;4.57;1.80;;;23.20;51.50;;;;;;5000959;28;20805;-83
2022/04/19 09:26:45;;;;;;;1.90;1.40;;;23.20;51.50;;;;;;5017266;28;20415;-83
2022/04/19 09:29:21;;;;;;;4.20;1.83;;;23.20;51.50;;;;;;5017664;28;20399;-82
2022/04/19 09:31:50;;;;;;;2.27;1.60;;;23.20;51.50;;;;;;5017983;28;20439;-83
2022/04/19 09:34:29;;;;;;;3.90;1.87;;;23.20;51.50;;;;;;5016947;28;20419;-83
2022/04/19 09:37:11;;;;;;;3.27;1.60;;;23.20;51.50;;;;;;5017514;28;20775;-83
2022/04/19 09:39:38;;;;;;;2.67;1.70;;;23.20;51.50;;;;;;5017484;28;20437;-83
2022/04/19 09:42:09;;;;;;;3.40;2.17;;;23.20;51.50;;;;;;5017958;28;20459;-85
2022/04/19 09:44:44;;;;;;;4.33;1.90;;;23.20;51.50;;;;;;5016772;28;20459;-82
2022/04/19 09:47:17;;;;;;;4.50;2.07;;;23.20;51.50;;;;;;4995800;28;20463;-83
2022/04/19 09:50:19;;;;;;;4.60;1.80;;;23.20;51.50;;;;;;5000251;28;20499;-83
2022/04/19 09:52:50;;;;;;;5.20;2.10;;;23.20;51.50;;;;;;4996475;28;20418;-82
2022/04/19 09:55:20;;;;;;;3.67;2.80;;;23.20;51.50;;;;;;5006114;28;20431;-82
2022/04/19 09:57:55;;;;;;;4.70;2.93;;;23.20;51.50;;;;;;5004543;28;20419;-82
2022/04/19 10:00:22;;;;;;;8.93;3.80;;;23.20;51.50;;;;;;5022447;28;20376;-82
2022/04/19 10:08:20;;;;;;;11.50;4.40;;;23.20;51.50;;;;;;5036752;28;20397;-87
2022/04/19 10:10:56;;;;;;;7.10;3.50;;;23.20;51.50;;;;;;5017679;28;20483;-83
2022/04/19 10:13:24;;;;;;;16.93;5.53;;;23.20;51.50;;;;;;5003791;28;20418;-83
2022/04/19 10:15:50;;;;;;;14.90;5.30;;;23.20;51.50;;;;;;5018470;28;20423;-83
2022/04/19 10:18:19;;;;;;;12.93;6.80;;;23.20;51.50;;;;;;5018756;28;20819;-83
2022/04/19 10:20:54;;;;;;;13.63;5.87;;;23.20;51.50;;;;;;5036214;28;20403;-83
2022/04/19 10:23:32;;;;;;;18.13;6.17;;;23.20;51.50;;;;;;5019570;28;20474;-82
2022/04/19 10:26:16;;;;;;;16.93;7.03;;;23.20;51.50;;;;;;5036562;28;20412;-82
2022/04/19 10:28:43;;;;;;;16.73;6.23;;;23.20;51.50;;;;;;5015382;28;20430;-82
2022/04/19 10:31:12;;;;;;;19.47;7.40;;;23.20;51.50;;;;;;5036439;28;20411;-81
2022/04/19 10:33:52;;;;;;;24.03;8.43;;;23.20;51.50;;;;;;5018117;28;20446;-81
2022/04/19 10:36:39;;;;;;;21.47;7.60;;;23.20;51.50;;;;;;5002139;28;20425;-81
2022/04/19 10:39:32;;;;;;;23.57;8.87;;;23.20;51.50;;;;;;5019408;28;20415;-82
2022/04/19 10:42:05;;;;;;;24.60;8.43;;;23.20;51.50;;;;;;4957008;29;20421;-85
2022/04/19 10:44:49;;;;;;;29.90;10.90;;;23.20;51.50;;;;;;4941053;29;20479;-82
2022/04/19 10:47:28;;;;;;;26.00;9.27;;;23.20;51.50;;;;;;4957544;29;20454;-82
2022/04/19 10:50:07;;;;;;;31.33;10.07;;;23.20;51.50;;;;;;4943664;29;20430;-82
2022/04/19 10:53:00;;;;;;;31.57;12.73;;;23.20;51.50;;;;;;4957839;29;20513;-81
2022/04/19 10:55:28;;;;;;;27.73;10.60;;;23.20;51.50;;;;;;4882017;29;20447;-82
2022/04/19 10:58:23;;;;;;;26.17;10.90;;;23.20;51.50;;;;;;4881175;29;20431;-82
2022/04/19 11:01:02;;;;;;;24.87;11.77;;;23.20;51.50;;;;;;4865906;29;20797;-82
2022/04/19 11:03:37;;;;;;;29.17;11.97;;;23.20;51.50;;;;;;4895842;29;20425;-81
2022/04/19 11:06:31;;;;;;;32.70;11.07;;;23.20;51.50;;;;;;4897147;29;20441;-82
2022/04/19 11:09:27;;;;;;;35.60;13.27;;;23.20;51.50;;;;;;4899344;29;20401;-82
2022/04/19 11:12:09;;;;;;;39.03;12.57;;;23.20;51.50;;;;;;4898867;29;20426;-82
2022/04/19 11:14:43;;;;;;;23.87;11.57;;;23.20;51.50;;;;;;4898779;29;20402;-83
2022/04/19 11:17:27;;;;;;;24.90;11.57;;;23.20;51.50;;;;;;4898130;29;20417;-83
2022/04/19 11:19:54;;;;;;;32.57;11.73;;;23.30;51.50;;;;;;4966455;29;20442;-83
2022/04/19 11:22:43;;;;;;;31.70;12.53;;;23.30;51.50;;;;;;4944326;29;20438;-83
2022/04/19 11:25:10;;;;;;;29.83;10.07;;;23.30;51.50;;;;;;4939128;29;20538;-84
2022/04/19 11:27:53;;;;;;;34.03;12.47;;;23.30;51.50;;;;;;4959481;29;20489;-84
2022/04/19 11:30:23;;;;;;;28.93;10.40;;;23.30;51.50;;;;;;4961140;28;20413;-85
2022/04/19 11:32:53;;;;;;;28.63;10.57;;;23.30;51.50;;;;;;5033288;28;20406;-83
2022/04/19 11:35:19;;;;;;;24.30;10.07;;;23.30;51.50;;;;;;5037875;28;20426;-83
2022/04/19 11:37:51;;;;;;;23.50;10.60;;;23.30;51.50;;;;;;5030579;28;20428;-83
2022/04/19 11:48:45;;;;;;;23.27;10.07;;;23.30;51.50;;;;;;5023018;28;20395;-83
2022/04/19 11:51:14;;;;;;;28.13;10.73;;;23.30;51.60;;;;;;5002314;28;20416;-83
2022/04/19 11:53:41;;;;;;;27.17;9.43;;;23.30;51.60;;;;;;5000340;28;20438;-84
2022/04/19 11:56:07;;;;;;;24.60;10.67;;;23.40;51.70;;;;;;5000819;28;20477;-82
2022/04/19 11:58:36;;;;;;;22.50;9.60;;;23.40;51.70;;;;;;5034473;28;20414;-82
2022/04/19 12:01:07;;;;;;;31.17;12.00;;;23.40;51.70;;;;;;5017103;28;20418;-82
2022/04/19 12:03:36;;;;;;;25.27;10.30;;;23.40;51.70;;;;;;5034735;28;20427;-82
2022/04/19 12:06:11;;;;;;;20.80;9.30;;;23.40;51.70;;;;;;5035122;28;20478;-81
2022/04/19 12:08:42;;;;;;;23.57;11.07;;;23.40;51.80;;;;;;5018058;28;20379;-82
2022/04/19 12:11:18;;;;;;;18.17;8.93;;;23.40;51.80;;;;;;5034755;28;20426;-83
2022/04/19 12:13:47;;;;;;;21.23;9.10;;;23.40;51.80;;;;;;5017423;28;20422;-82
2022/04/19 12:16:53;;;;;;;18.90;9.60;;;23.40;51.80;;;;;;5017836;28;20410;-82
2022/04/19 12:19:32;;;;;;;21.37;9.10;;;23.50;51.90;;;;;;4955860;29;20407;-82
2022/04/19 12:22:00;;;;;;;21.00;9.80;;;23.40;51.90;;;;;;4940601;29;20518;-82
2022/04/19 12:24:31;;;;;;;25.00;9.57;;;23.50;51.90;;;;;;4924292;29;20451;-82
2022/04/19 12:27:32;;;;;;;16.57;8.53;;;23.50;51.90;;;;;;4940182;29;20431;-82
2022/04/19 12:30:08;;;;;;;20.47;8.73;;;23.50;51.90;;;;;;4880528;29;20422;-82
2022/04/19 12:32:53;;;;;;;20.90;9.40;;;23.50;52.00;;;;;;4869301;29;20425;-82
2022/04/19 12:35:35;;;;;;;17.70;8.50;;;23.50;52.00;;;;;;4884954;29;20402;-82
2022/04/19 12:38:19;;;;;;;19.53;9.27;;;23.50;52.00;;;;;;4853078;29;20439;-82
2022/04/19 12:40:46;;;;;;;19.87;9.17;;;23.50;52.00;;;;;;4868815;29;20987;-81
2022/04/19 12:43:14;;;;;;;17.90;8.90;;;23.50;52.00;;;;;;4884620;29;20422;-83
2022/04/19 12:45:41;;;;;;;17.13;8.13;;;23.50;52.00;;;;;;4883184;29;20458;-84
2022/04/19 12:54:59;;;;;;;24.70;8.90;;;23.60;52.00;;;;;;4828718;29;20807;-83
2022/04/19 13:00:57;;;;;;;18.77;8.40;;;23.60;52.10;;;;;;4882815;29;20408;-83
2022/04/19 13:03:28;;;;;;;17.73;8.60;;;23.60;52.10;;;;;;4882817;29;20437;-83
2022/04/19 13:14:08;;;;;;;12.40;6.43;;;23.60;52.10;;;;;;4958426;29;20391;-83
2022/04/19 13:16:35;;;;;;;15.47;7.47;;;23.60;52.10;;;;;;4958215;29;20426;-83
2022/04/19 13:19:01;;;;;;;18.77;7.23;;;23.60;52.10;;;;;;4942327;29;20460;-83
2022/04/19 13:21:28;;;;;;;16.20;7.53;;;23.60;52.00;;;;;;4955344;29;20950;-83
2022/04/19 13:23:55;;;;;;;13.33;6.80;;;23.70;52.20;;;;;;4958072;29;20459;-83
2022/04/19 13:26:23;;;;;;;12.70;7.67;;;23.70;52.10;;;;;;4958724;29;20411;-83
2022/04/19 13:28:49;;;;;;;17.20;7.70;;;23.70;52.10;;;;;;5007730;28;20785;-83
2022/04/19 13:31:15;;;;;;;16.23;7.90;;;23.70;52.10;;;;;;5037233;28;20419;-83
2022/04/19 13:33:51;;;;;;;18.10;7.47;;;23.70;52.10;;;;;;5038723;28;20441;-83
2022/04/19 13:36:21;;;;;;;13.83;6.57;;;23.70;52.10;;;;;;5020049;28;20408;-83
2022/04/19 13:38:48;;;;;;;17.17;8.37;;;23.70;52.10;;;;;;5036724;28;20427;-83
2022/04/19 13:41:16;;;;;;;11.33;6.23;;;23.70;52.10;;;;;;5038186;28;20430;-83
2022/04/19 13:43:43;;;;;;;12.13;6.50;;;23.70;52.00;;;;;;5003800;28;20434;-83
2022/04/19 13:46:12;;;;;;;13.00;5.83;;;23.70;52.00;;;;;;5020492;28;20423;-83
2022/04/19 13:48:41;;;;;;;12.87;7.27;;;23.80;52.10;;;;;;5021103;28;20407;-83
2022/04/19 13:51:07;;;;;;;11.87;6.10;;;23.70;52.00;;;;;;5003770;28;20415;-83
2022/04/19 13:53:35;;;;;;;15.20;6.70;;;23.70;52.00;;;;;;5036501;28;20429;-83
2022/04/19 13:56:01;;;;;;;10.37;5.80;;;23.70;52.10;;;;;;5017224;28;20427;-83
2022/04/19 13:58:28;;;;;;;10.47;6.30;;;23.80;52.10;;;;;;5036628;28;20407;-83